sensor_id;sensor_type;location;lat;lon;timestamp;temperature;humidity
7461;DHT22;6757;52.258;12.840;2023-07-02T00:02:16;17.60;99.90
7461;DHT22;6757;52.258;12.840;2023-07-02T00:04:44;17.60;99.90
7461;DHT22;6757;52.258;12.840;2023-07-02T00:07:13;17.60;99.90
7461;DHT22;6757;52.258;12.840;2023-07-02T00:09:40;17.60;99.90
7461;DHT22;6757;52.258;12.840;2023-07-02T00:12:08;17.60;99.90
7461;DHT22;6757;52.258;12.840;2023-07-02T00:14:35;17.60;99.90
7461;DHT22;6757;52.258;12.840;2023-07-02T00:17:03;17.50;99.90
7461;DHT22;6757;52.258;12.840;2023-07-02T00:19:30;17.50;99.90
7461;DHT22;6757;52.258;12.840;2023-07-02T00:21:57;17.50;99.90
7461;DHT22;6757;52.258;12.840;2023-07-02T00:24:25;17.50;99.90
7461;DHT22;6757;52.258;12.840;2023-07-02T00:26:52;17.40;99.90
7461;DHT22;6757;52.258;12.840;2023-07-02T00:29:19;17.40;99.90
7461;DHT22;6757;52.258;12.840;2023-07-02T00:31:46;17.40;99.90
7461;DHT22;6757;52.258;12.840;2023-07-02T00:34:13;17.40;99.90
7461;DHT22;6757;52.258;12.840;2023-07-02T00:36:39;17.40;99.90
7461;DHT22;6757;52.258;12.840;2023-07-02T00:39:07;17.30;99.90
7461;DHT22;6757;52.258;12.840;2023-07-02T00:41:35;17.30;99.90
7461;DHT22;6757;52.258;12.840;2023-07-02T00:44:02;17.30;99.90
7461;DHT22;6757;52.258;12.840;2023-07-02T00:46:30;17.30;99.90
7461;DHT22;6757;52.258;12.840;2023-07-02T00:48:59;17.30;99.90
7461;DHT22;6757;52.258;12.840;2023-07-02T00:51:27;17.30;99.90
7461;DHT22;6757;52.258;12.840;2023-07-02T00:53:56;17.30;99.90
7461;DHT22;6757;52.258;12.840;2023-07-02T00:56:25;17.30;99.90
7461;DHT22;6757;52.258;12.840;2023-07-02T00:58:54;17.30;99.90
7461;DHT22;6757;52.258;12.840;2023-07-02T01:01:24;17.30;99.90
7461;DHT22;6757;52.258;12.840;2023-07-02T01:03:55;17.30;99.90
7461;DHT22;6757;52.258;12.840;2023-07-02T01:06:26;17.30;99.90
7461;DHT22;6757;52.258;12.840;2023-07-02T01:08:55;17.30;99.90
7461;DHT22;6757;52.258;12.840;2023-07-02T01:11:27;17.30;99.90
7461;DHT22;6757;52.258;12.840;2023-07-02T01:14:01;17.30;99.90
7461;DHT22;6757;52.258;12.840;2023-07-02T01:16:30;17.30;99.90
7461;DHT22;6757;52.258;12.840;2023-07-02T01:18:59;17.20;99.90
7461;DHT22;6757;52.258;12.840;2023-07-02T01:21:31;17.20;99.90
7461;DHT22;6757;52.258;12.840;2023-07-02T01:23:59;17.20;99.90
7461;DHT22;6757;52.258;12.840;2023-07-02T01:26:29;17.20;99.90
7461;DHT22;6757;52.258;12.840;2023-07-02T01:28:59;17.20;99.90
7461;DHT22;6757;52.258;12.840;2023-07-02T01:31:26;17.20;99.90
7461;DHT22;6757;52.258;12.840;2023-07-02T01:33:53;17.20;99.90
7461;DHT22;6757;52.258;12.840;2023-07-02T01:36:20;17.20;99.90
7461;DHT22;6757;52.258;12.840;2023-07-02T01:38:48;17.10;99.90
7461;DHT22;6757;52.258;12.840;2023-07-02T01:41:15;17.10;99.90
7461;DHT22;6757;52.258;12.840;2023-07-02T01:43:42;17.10;99.90
7461;DHT22;6757;52.258;12.840;2023-07-02T01:46:09;17.10;99.90
7461;DHT22;6757;52.258;12.840;2023-07-02T01:48:36;17.10;99.90
7461;DHT22;6757;52.258;12.840;2023-07-02T01:51:03;17.10;99.90
7461;DHT22;6757;52.258;12.840;2023-07-02T01:53:30;17.10;99.90
7461;DHT22;6757;52.258;12.840;2023-07-02T01:55:58;17.00;99.90
7461;DHT22;6757;52.258;12.840;2023-07-02T01:58:25;17.00;99.90
7461;DHT22;6757;52.258;12.840;2023-07-02T02:00:52;17.00;99.90
7461;DHT22;6757;52.258;12.840;2023-07-02T02:03:19;17.00;99.90
7461;DHT22;6757;52.258;12.840;2023-07-02T02:05:46;17.00;99.90
7461;DHT22;6757;52.258;12.840;2023-07-02T02:08:13;16.90;99.90
7461;DHT22;6757;52.258;12.840;2023-07-02T02:10:40;16.90;99.90
7461;DHT22;6757;52.258;12.840;2023-07-02T02:13:08;16.90;99.90
7461;DHT22;6757;52.258;12.840;2023-07-02T02:15:35;16.90;99.90
7461;DHT22;6757;52.258;12.840;2023-07-02T02:18:03;16.90;99.90
7461;DHT22;6757;52.258;12.840;2023-07-02T02:20:30;16.80;99.90
7461;DHT22;6757;52.258;12.840;2023-07-02T02:22:57;16.80;99.90
7461;DHT22;6757;52.258;12.840;2023-07-02T02:25:24;16.80;99.90
7461;DHT22;6757;52.258;12.840;2023-07-02T02:27:51;16.80;99.90
7461;DHT22;6757;52.258;12.840;2023-07-02T02:30:19;16.80;99.90
7461;DHT22;6757;52.258;12.840;2023-07-02T02:32:46;16.80;99.90
7461;DHT22;6757;52.258;12.840;2023-07-02T02:35:14;16.70;99.90
7461;DHT22;6757;52.258;12.840;2023-07-02T02:37:41;16.70;99.90
7461;DHT22;6757;52.258;12.840;2023-07-02T02:40:09;16.70;99.90
7461;DHT22;6757;52.258;12.840;2023-07-02T02:42:36;16.70;99.90
7461;DHT22;6757;52.258;12.840;2023-07-02T02:45:04;16.70;99.90
7461;DHT22;6757;52.258;12.840;2023-07-02T02:47:33;16.70;99.90
7461;DHT22;6757;52.258;12.840;2023-07-02T02:49:59;16.70;99.90
7461;DHT22;6757;52.258;12.840;2023-07-02T02:52:26;16.70;99.90
7461;DHT22;6757;52.258;12.840;2023-07-02T02:54:53;16.60;99.90
7461;DHT22;6757;52.258;12.840;2023-07-02T02:57:20;16.60;99.90
7461;DHT22;6757;52.258;12.840;2023-07-02T02:59:47;16.60;99.90
7461;DHT22;6757;52.258;12.840;2023-07-02T03:02:14;16.60;99.90
7461;DHT22;6757;52.258;12.840;2023-07-02T03:04:42;16.60;99.90
7461;DHT22;6757;52.258;12.840;2023-07-02T03:07:09;16.60;99.90
7461;DHT22;6757;52.258;12.840;2023-07-02T03:09:36;16.60;99.90
7461;DHT22;6757;52.258;12.840;2023-07-02T03:12:04;16.50;99.90
7461;DHT22;6757;52.258;12.840;2023-07-02T03:14:31;16.50;99.90
7461;DHT22;6757;52.258;12.840;2023-07-02T03:16:58;16.50;99.90
7461;DHT22;6757;52.258;12.840;2023-07-02T03:19:25;16.50;99.90
7461;DHT22;6757;52.258;12.840;2023-07-02T03:21:54;16.50;99.90
7461;DHT22;6757;52.258;12.840;2023-07-02T03:24:21;16.50;99.90
7461;DHT22;6757;52.258;12.840;2023-07-02T03:26:48;16.50;99.90
7461;DHT22;6757;52.258;12.840;2023-07-02T03:29:15;16.50;99.90
7461;DHT22;6757;52.258;12.840;2023-07-02T03:31:45;16.50;99.90
7461;DHT22;6757;52.258;12.840;2023-07-02T03:34:11;16.50;99.90
7461;DHT22;6757;52.258;12.840;2023-07-02T03:36:38;16.50;99.90
7461;DHT22;6757;52.258;12.840;2023-07-02T03:39:07;16.50;99.90
7461;DHT22;6757;52.258;12.840;2023-07-02T03:41:34;16.50;99.90
7461;DHT22;6757;52.258;12.840;2023-07-02T03:44:01;16.40;99.90
7461;DHT22;6757;52.258;12.840;2023-07-02T03:46:28;16.40;99.90
7461;DHT22;6757;52.258;12.840;2023-07-02T03:48:56;16.40;99.90
7461;DHT22;6757;52.258;12.840;2023-07-02T03:51:23;16.40;99.90
7461;DHT22;6757;52.258;12.840;2023-07-02T03:53:50;16.40;99.90
7461;DHT22;6757;52.258;12.840;2023-07-02T03:56:18;16.40;99.90
7461;DHT22;6757;52.258;12.840;2023-07-02T03:58:45;16.40;99.90
7461;DHT22;6757;52.258;12.840;2023-07-02T04:01:12;16.40;99.90
7461;DHT22;6757;52.258;12.840;2023-07-02T04:03:42;16.40;99.90
7461;DHT22;6757;52.258;12.840;2023-07-02T04:06:09;16.40;99.90
7461;DHT22;6757;52.258;12.840;2023-07-02T04:08:36;16.40;99.90
7461;DHT22;6757;52.258;12.840;2023-07-02T04:11:03;16.40;99.90
7461;DHT22;6757;52.258;12.840;2023-07-02T04:13:31;16.50;99.90
7461;DHT22;6757;52.258;12.840;2023-07-02T04:15:58;16.50;99.90
7461;DHT22;6757;52.258;12.840;2023-07-02T04:18:25;16.50;99.90
7461;DHT22;6757;52.258;12.840;2023-07-02T04:20:52;16.50;99.90
7461;DHT22;6757;52.258;12.840;2023-07-02T04:23:19;16.50;99.90
7461;DHT22;6757;52.258;12.840;2023-07-02T04:25:46;16.70;99.90
7461;DHT22;6757;52.258;12.840;2023-07-02T04:28:13;16.60;99.90
7461;DHT22;6757;52.258;12.840;2023-07-02T04:30:42;16.60;99.90
7461;DHT22;6757;52.258;12.840;2023-07-02T04:33:09;16.60;99.90
7461;DHT22;6757;52.258;12.840;2023-07-02T04:35:39;16.60;99.90
7461;DHT22;6757;52.258;12.840;2023-07-02T04:38:07;16.60;99.90
7461;DHT22;6757;52.258;12.840;2023-07-02T04:40:35;16.60;99.90
7461;DHT22;6757;52.258;12.840;2023-07-02T04:43:02;16.60;99.90
7461;DHT22;6757;52.258;12.840;2023-07-02T04:45:30;17.00;99.90
7461;DHT22;6757;52.258;12.840;2023-07-02T04:48:03;17.20;99.90
7461;DHT22;6757;52.258;12.840;2023-07-02T04:50:30;16.70;99.90
7461;DHT22;6757;52.258;12.840;2023-07-02T04:52:57;16.70;99.90
7461;DHT22;6757;52.258;12.840;2023-07-02T04:55:24;16.70;99.90
7461;DHT22;6757;52.258;12.840;2023-07-02T04:57:51;16.70;99.90
7461;DHT22;6757;52.258;12.840;2023-07-02T05:00:18;16.80;99.90
7461;DHT22;6757;52.258;12.840;2023-07-02T05:02:47;16.80;99.90
7461;DHT22;6757;52.258;12.840;2023-07-02T05:05:16;16.80;99.90
7461;DHT22;6757;52.258;12.840;2023-07-02T05:07:43;16.90;99.90
7461;DHT22;6757;52.258;12.840;2023-07-02T05:10:10;16.90;99.90
7461;DHT22;6757;52.258;12.840;2023-07-02T05:12:36;17.00;99.90
7461;DHT22;6757;52.258;12.840;2023-07-02T05:15:04;17.00;99.90
7461;DHT22;6757;52.258;12.840;2023-07-02T05:17:32;17.00;99.90
7461;DHT22;6757;52.258;12.840;2023-07-02T05:20:01;17.10;99.90
7461;DHT22;6757;52.258;12.840;2023-07-02T05:22:30;17.10;99.90
7461;DHT22;6757;52.258;12.840;2023-07-02T05:24:57;17.10;99.90
7461;DHT22;6757;52.258;12.840;2023-07-02T05:27:24;17.10;99.90
7461;DHT22;6757;52.258;12.840;2023-07-02T05:29:51;17.10;99.90
7461;DHT22;6757;52.258;12.840;2023-07-02T05:32:18;17.20;99.90
7461;DHT22;6757;52.258;12.840;2023-07-02T05:34:45;17.10;99.90
7461;DHT22;6757;52.258;12.840;2023-07-02T05:37:11;17.10;99.90
7461;DHT22;6757;52.258;12.840;2023-07-02T05:39:40;17.10;99.90
7461;DHT22;6757;52.258;12.840;2023-07-02T05:42:07;17.10;99.90
7461;DHT22;6757;52.258;12.840;2023-07-02T05:44:34;17.40;99.90
7461;DHT22;6757;52.258;12.840;2023-07-02T05:47:00;17.20;99.90
7461;DHT22;6757;52.258;12.840;2023-07-02T05:49:27;17.20;99.90
7461;DHT22;6757;52.258;12.840;2023-07-02T05:51:54;17.30;99.90
7461;DHT22;6757;52.258;12.840;2023-07-02T05:54:21;17.30;99.90
7461;DHT22;6757;52.258;12.840;2023-07-02T05:56:49;17.40;99.90
7461;DHT22;6757;52.258;12.840;2023-07-02T05:59:16;17.50;99.90
7461;DHT22;6757;52.258;12.840;2023-07-02T06:01:44;17.60;99.90
7461;DHT22;6757;52.258;12.840;2023-07-02T06:04:11;17.70;99.90
7461;DHT22;6757;52.258;12.840;2023-07-02T06:06:38;17.80;99.90
7461;DHT22;6757;52.258;12.840;2023-07-02T06:09:05;17.90;99.90
7461;DHT22;6757;52.258;12.840;2023-07-02T06:11:32;18.00;99.90
7461;DHT22;6757;52.258;12.840;2023-07-02T06:14:00;18.00;99.90
7461;DHT22;6757;52.258;12.840;2023-07-02T06:16:27;18.00;99.90
7461;DHT22;6757;52.258;12.840;2023-07-02T06:18:54;17.90;99.90
7461;DHT22;6757;52.258;12.840;2023-07-02T06:21:21;17.90;99.90
7461;DHT22;6757;52.258;12.840;2023-07-02T06:23:48;17.90;99.90
7461;DHT22;6757;52.258;12.840;2023-07-02T06:26:15;17.90;99.90
7461;DHT22;6757;52.258;12.840;2023-07-02T06:28:43;17.90;99.90
7461;DHT22;6757;52.258;12.840;2023-07-02T06:31:11;18.00;99.90
7461;DHT22;6757;52.258;12.840;2023-07-02T06:33:39;18.00;99.90
7461;DHT22;6757;52.258;12.840;2023-07-02T06:36:07;18.10;99.90
7461;DHT22;6757;52.258;12.840;2023-07-02T06:38:34;18.10;99.90
7461;DHT22;6757;52.258;12.840;2023-07-02T06:41:01;18.20;99.90
7461;DHT22;6757;52.258;12.840;2023-07-02T06:43:28;18.30;99.90
7461;DHT22;6757;52.258;12.840;2023-07-02T06:45:55;18.30;99.90
7461;DHT22;6757;52.258;12.840;2023-07-02T06:48:23;18.40;99.90
7461;DHT22;6757;52.258;12.840;2023-07-02T06:50:50;18.40;99.90
7461;DHT22;6757;52.258;12.840;2023-07-02T06:53:17;18.40;99.90
7461;DHT22;6757;52.258;12.840;2023-07-02T06:55:44;18.40;99.90
7461;DHT22;6757;52.258;12.840;2023-07-02T06:58:11;18.50;99.90
7461;DHT22;6757;52.258;12.840;2023-07-02T07:00:38;18.50;99.90
7461;DHT22;6757;52.258;12.840;2023-07-02T07:03:05;18.50;99.90
7461;DHT22;6757;52.258;12.840;2023-07-02T07:05:33;18.50;99.90
7461;DHT22;6757;52.258;12.840;2023-07-02T07:08:00;18.50;99.90
7461;DHT22;6757;52.258;12.840;2023-07-02T07:10:27;18.50;99.90
7461;DHT22;6757;52.258;12.840;2023-07-02T07:12:59;18.60;99.90
7461;DHT22;6757;52.258;12.840;2023-07-02T07:15:27;18.70;99.90
7461;DHT22;6757;52.258;12.840;2023-07-02T07:17:53;18.70;99.90
7461;DHT22;6757;52.258;12.840;2023-07-02T07:20:20;18.80;99.90
7461;DHT22;6757;52.258;12.840;2023-07-02T07:22:49;18.80;99.90
7461;DHT22;6757;52.258;12.840;2023-07-02T07:25:16;18.80;99.90
7461;DHT22;6757;52.258;12.840;2023-07-02T07:27:43;18.80;99.90
7461;DHT22;6757;52.258;12.840;2023-07-02T07:30:11;18.70;99.90
7461;DHT22;6757;52.258;12.840;2023-07-02T07:32:39;18.80;99.90
7461;DHT22;6757;52.258;12.840;2023-07-02T07:35:08;18.70;99.90
7461;DHT22;6757;52.258;12.840;2023-07-02T07:37:35;18.70;99.90
7461;DHT22;6757;52.258;12.840;2023-07-02T07:40:05;18.70;99.90
7461;DHT22;6757;52.258;12.840;2023-07-02T07:42:33;18.70;99.90
7461;DHT22;6757;52.258;12.840;2023-07-02T07:45:01;18.70;99.90
7461;DHT22;6757;52.258;12.840;2023-07-02T07:47:29;18.70;99.90
7461;DHT22;6757;52.258;12.840;2023-07-02T07:49:56;18.70;99.90
7461;DHT22;6757;52.258;12.840;2023-07-02T07:52:23;18.70;99.90
7461;DHT22;6757;52.258;12.840;2023-07-02T07:54:50;18.70;99.90
7461;DHT22;6757;52.258;12.840;2023-07-02T07:57:19;18.80;99.90
7461;DHT22;6757;52.258;12.840;2023-07-02T07:59:46;18.80;99.90
7461;DHT22;6757;52.258;12.840;2023-07-02T08:02:13;18.80;99.90
7461;DHT22;6757;52.258;12.840;2023-07-02T08:04:41;18.70;99.90
7461;DHT22;6757;52.258;12.840;2023-07-02T08:07:09;18.60;99.90
7461;DHT22;6757;52.258;12.840;2023-07-02T08:09:36;18.50;99.90
7461;DHT22;6757;52.258;12.840;2023-07-02T08:12:03;18.30;99.90
7461;DHT22;6757;52.258;12.840;2023-07-02T08:14:32;17.80;99.90
7461;DHT22;6757;52.258;12.840;2023-07-02T08:17:00;17.30;99.90
7461;DHT22;6757;52.258;12.840;2023-07-02T08:19:27;16.80;99.90
7461;DHT22;6757;52.258;12.840;2023-07-02T08:21:54;16.40;99.90
7461;DHT22;6757;52.258;12.840;2023-07-02T08:24:21;16.00;99.90
7461;DHT22;6757;52.258;12.840;2023-07-02T08:26:48;15.70;99.90
7461;DHT22;6757;52.258;12.840;2023-07-02T08:29:16;16.10;99.90
7461;DHT22;6757;52.258;12.840;2023-07-02T08:31:44;15.20;99.90
7461;DHT22;6757;52.258;12.840;2023-07-02T08:34:11;15.00;99.90
7461;DHT22;6757;52.258;12.840;2023-07-02T08:36:38;14.80;99.90
7461;DHT22;6757;52.258;12.840;2023-07-02T08:39:05;14.60;99.90
7461;DHT22;6757;52.258;12.840;2023-07-02T08:41:42;14.60;99.90
7461;DHT22;6757;52.258;12.840;2023-07-02T08:44:11;14.60;99.90
7461;DHT22;6757;52.258;12.840;2023-07-02T08:46:39;14.60;99.90
7461;DHT22;6757;52.258;12.840;2023-07-02T08:49:08;14.60;99.90
7461;DHT22;6757;52.258;12.840;2023-07-02T08:51:35;14.70;99.90
7461;DHT22;6757;52.258;12.840;2023-07-02T08:54:03;14.70;99.90
7461;DHT22;6757;52.258;12.840;2023-07-02T08:56:30;14.80;99.90
7461;DHT22;6757;52.258;12.840;2023-07-02T08:58:57;14.90;99.90
7461;DHT22;6757;52.258;12.840;2023-07-02T09:01:24;15.00;99.90
7461;DHT22;6757;52.258;12.840;2023-07-02T09:03:51;15.10;99.90
7461;DHT22;6757;52.258;12.840;2023-07-02T09:06:19;15.10;99.90
7461;DHT22;6757;52.258;12.840;2023-07-02T09:08:47;15.30;99.90
7461;DHT22;6757;52.258;12.840;2023-07-02T09:11:14;15.40;99.90
7461;DHT22;6757;52.258;12.840;2023-07-02T09:13:45;15.50;99.90
7461;DHT22;6757;52.258;12.840;2023-07-02T09:16:23;15.60;99.90
7461;DHT22;6757;52.258;12.840;2023-07-02T09:18:58;15.60;99.90
7461;DHT22;6757;52.258;12.840;2023-07-02T09:21:28;15.70;99.90
7461;DHT22;6757;52.258;12.840;2023-07-02T09:23:55;15.80;99.90
7461;DHT22;6757;52.258;12.840;2023-07-02T09:26:23;15.90;99.90
7461;DHT22;6757;52.258;12.840;2023-07-02T09:28:50;15.90;99.90
7461;DHT22;6757;52.258;12.840;2023-07-02T09:31:17;16.00;99.90
7461;DHT22;6757;52.258;12.840;2023-07-02T09:33:44;16.10;99.90
7461;DHT22;6757;52.258;12.840;2023-07-02T09:36:11;16.20;99.90
7461;DHT22;6757;52.258;12.840;2023-07-02T09:38:41;16.30;99.90
7461;DHT22;6757;52.258;12.840;2023-07-02T09:41:08;16.40;99.90
7461;DHT22;6757;52.258;12.840;2023-07-02T09:43:35;16.40;99.90
7461;DHT22;6757;52.258;12.840;2023-07-02T09:46:03;16.50;99.90
7461;DHT22;6757;52.258;12.840;2023-07-02T09:48:33;16.60;99.90
7461;DHT22;6757;52.258;12.840;2023-07-02T09:51:02;16.70;99.90
7461;DHT22;6757;52.258;12.840;2023-07-02T09:53:29;16.80;99.90
7461;DHT22;6757;52.258;12.840;2023-07-02T09:55:58;16.90;99.90
7461;DHT22;6757;52.258;12.840;2023-07-02T09:58:25;17.10;99.90
7461;DHT22;6757;52.258;12.840;2023-07-02T10:00:52;17.30;99.90
7461;DHT22;6757;52.258;12.840;2023-07-02T10:03:28;17.60;99.90
7461;DHT22;6757;52.258;12.840;2023-07-02T10:06:03;17.70;99.90
7461;DHT22;6757;52.258;12.840;2023-07-02T10:08:31;17.80;99.90
7461;DHT22;6757;52.258;12.840;2023-07-02T10:11:08;17.90;99.90
7461;DHT22;6757;52.258;12.840;2023-07-02T10:13:36;18.00;99.90
7461;DHT22;6757;52.258;12.840;2023-07-02T10:16:04;18.20;99.90
7461;DHT22;6757;52.258;12.840;2023-07-02T10:18:32;18.40;99.90
7461;DHT22;6757;52.258;12.840;2023-07-02T10:20:59;18.50;99.90
7461;DHT22;6757;52.258;12.840;2023-07-02T10:23:34;18.60;99.90
7461;DHT22;6757;52.258;12.840;2023-07-02T10:26:14;18.80;99.90
7461;DHT22;6757;52.258;12.840;2023-07-02T10:28:42;18.90;99.90
7461;DHT22;6757;52.258;12.840;2023-07-02T10:31:19;19.00;99.90
7461;DHT22;6757;52.258;12.840;2023-07-02T10:33:46;19.10;99.90
7461;DHT22;6757;52.258;12.840;2023-07-02T10:36:20;19.20;99.90
7461;DHT22;6757;52.258;12.840;2023-07-02T10:38:48;19.30;99.90
7461;DHT22;6757;52.258;12.840;2023-07-02T10:41:27;19.40;99.90
7461;DHT22;6757;52.258;12.840;2023-07-02T10:44:05;19.60;99.90
7461;DHT22;6757;52.258;12.840;2023-07-02T10:46:33;19.70;99.90
7461;DHT22;6757;52.258;12.840;2023-07-02T10:49:00;19.90;99.90
7461;DHT22;6757;52.258;12.840;2023-07-02T10:51:28;20.00;99.90
7461;DHT22;6757;52.258;12.840;2023-07-02T10:53:58;20.10;99.90
7461;DHT22;6757;52.258;12.840;2023-07-02T10:56:28;20.30;99.90
7461;DHT22;6757;52.258;12.840;2023-07-02T10:58:55;20.30;99.90
7461;DHT22;6757;52.258;12.840;2023-07-02T11:01:24;20.30;99.90
7461;DHT22;6757;52.258;12.840;2023-07-02T11:03:56;20.30;99.90
7461;DHT22;6757;52.258;12.840;2023-07-02T11:06:25;20.40;99.90
7461;DHT22;6757;52.258;12.840;2023-07-02T11:08:53;20.40;99.90
7461;DHT22;6757;52.258;12.840;2023-07-02T11:11:22;20.40;99.90
7461;DHT22;6757;52.258;12.840;2023-07-02T11:13:52;20.50;99.90
7461;DHT22;6757;52.258;12.840;2023-07-02T11:16:21;20.40;99.90
7461;DHT22;6757;52.258;12.840;2023-07-02T11:18:52;20.50;99.90
7461;DHT22;6757;52.258;12.840;2023-07-02T11:21:20;20.50;99.90
7461;DHT22;6757;52.258;12.840;2023-07-02T11:23:47;20.60;99.90
7461;DHT22;6757;52.258;12.840;2023-07-02T11:26:15;20.60;99.90
7461;DHT22;6757;52.258;12.840;2023-07-02T11:28:50;20.60;99.90
7461;DHT22;6757;52.258;12.840;2023-07-02T11:31:25;20.70;99.90
7461;DHT22;6757;52.258;12.840;2023-07-02T11:33:53;20.70;99.90
7461;DHT22;6757;52.258;12.840;2023-07-02T11:36:21;20.70;99.90
7461;DHT22;6757;52.258;12.840;2023-07-02T11:38:50;20.90;99.90
7461;DHT22;6757;52.258;12.840;2023-07-02T11:41:19;21.00;99.90
7461;DHT22;6757;52.258;12.840;2023-07-02T11:43:46;21.10;99.90
7461;DHT22;6757;52.258;12.840;2023-07-02T11:46:15;21.20;99.90
7461;DHT22;6757;52.258;12.840;2023-07-02T11:48:42;21.30;99.90
7461;DHT22;6757;52.258;12.840;2023-07-02T11:51:09;21.50;99.90
7461;DHT22;6757;52.258;12.840;2023-07-02T11:53:37;21.70;99.90
7461;DHT22;6757;52.258;12.840;2023-07-02T11:56:04;21.90;99.90
7461;DHT22;6757;52.258;12.840;2023-07-02T11:58:31;21.80;99.70
7461;DHT22;6757;52.258;12.840;2023-07-02T12:00:58;22.10;98.80
7461;DHT22;6757;52.258;12.840;2023-07-02T12:03:27;22.30;97.10
7461;DHT22;6757;52.258;12.840;2023-07-02T12:05:55;22.40;96.20
7461;DHT22;6757;52.258;12.840;2023-07-02T12:08:23;22.50;95.30
7461;DHT22;6757;52.258;12.840;2023-07-02T12:10:50;22.60;94.20
7461;DHT22;6757;52.258;12.840;2023-07-02T12:13:17;22.70;94.30
7461;DHT22;6757;52.258;12.840;2023-07-02T12:15:46;22.90;94.10
7461;DHT22;6757;52.258;12.840;2023-07-02T12:18:14;23.20;93.10
7461;DHT22;6757;52.258;12.840;2023-07-02T12:20:43;23.60;91.20
7461;DHT22;6757;52.258;12.840;2023-07-02T12:23:10;24.30;90.80
7461;DHT22;6757;52.258;12.840;2023-07-02T12:25:37;24.30;89.90
7461;DHT22;6757;52.258;12.840;2023-07-02T12:28:05;24.70;87.30
7461;DHT22;6757;52.258;12.840;2023-07-02T12:30:35;25.00;83.60
7461;DHT22;6757;52.258;12.840;2023-07-02T12:33:02;25.40;78.40
7461;DHT22;6757;52.258;12.840;2023-07-02T12:35:29;25.60;75.90
7461;DHT22;6757;52.258;12.840;2023-07-02T12:37:57;25.80;73.00
7461;DHT22;6757;52.258;12.840;2023-07-02T12:40:24;26.00;72.70
7461;DHT22;6757;52.258;12.840;2023-07-02T12:42:52;26.30;72.10
7461;DHT22;6757;52.258;12.840;2023-07-02T12:45:19;26.30;71.20
7461;DHT22;6757;52.258;12.840;2023-07-02T12:47:46;26.00;70.20
7461;DHT22;6757;52.258;12.840;2023-07-02T12:50:13;25.60;70.80
7461;DHT22;6757;52.258;12.840;2023-07-02T12:52:40;25.50;71.50
7461;DHT22;6757;52.258;12.840;2023-07-02T12:55:09;25.70;72.10
7461;DHT22;6757;52.258;12.840;2023-07-02T12:57:36;26.20;71.80
7461;DHT22;6757;52.258;12.840;2023-07-02T13:00:04;26.70;70.30
7461;DHT22;6757;52.258;12.840;2023-07-02T13:02:34;27.40;69.00
7461;DHT22;6757;52.258;12.840;2023-07-02T13:05:01;27.90;66.70
7461;DHT22;6757;52.258;12.840;2023-07-02T13:07:28;28.40;63.80
7461;DHT22;6757;52.258;12.840;2023-07-02T13:09:56;28.60;61.80
7461;DHT22;6757;52.258;12.840;2023-07-02T13:12:24;28.90;59.80
7461;DHT22;6757;52.258;12.840;2023-07-02T13:14:52;28.80;58.50
7461;DHT22;6757;52.258;12.840;2023-07-02T13:17:19;28.60;59.00
7461;DHT22;6757;52.258;12.840;2023-07-02T13:19:46;28.20;59.60
7461;DHT22;6757;52.258;12.840;2023-07-02T13:22:14;27.60;60.00
7461;DHT22;6757;52.258;12.840;2023-07-02T13:24:42;27.30;61.20
7461;DHT22;6757;52.258;12.840;2023-07-02T13:27:13;27.30;61.90
7461;DHT22;6757;52.258;12.840;2023-07-02T13:29:43;27.60;61.80
7461;DHT22;6757;52.258;12.840;2023-07-02T13:32:10;27.80;60.50
7461;DHT22;6757;52.258;12.840;2023-07-02T13:34:38;28.00;59.40
7461;DHT22;6757;52.258;12.840;2023-07-02T13:37:05;28.30;58.90
7461;DHT22;6757;52.258;12.840;2023-07-02T13:39:32;28.60;58.90
7461;DHT22;6757;52.258;12.840;2023-07-02T13:41:59;29.20;57.50
7461;DHT22;6757;52.258;12.840;2023-07-02T13:44:26;28.80;55.50
7461;DHT22;6757;52.258;12.840;2023-07-02T13:46:54;28.60;55.90
7461;DHT22;6757;52.258;12.840;2023-07-02T13:49:22;28.60;57.10
7461;DHT22;6757;52.258;12.840;2023-07-02T13:51:49;28.90;57.90
7461;DHT22;6757;52.258;12.840;2023-07-02T13:54:16;29.30;57.00
7461;DHT22;6757;52.258;12.840;2023-07-02T13:56:44;29.10;55.70
7461;DHT22;6757;52.258;12.840;2023-07-02T13:59:13;28.90;55.40
7461;DHT22;6757;52.258;12.840;2023-07-02T14:01:41;28.70;55.80
7461;DHT22;6757;52.258;12.840;2023-07-02T14:04:09;28.70;55.90
7461;DHT22;6757;52.258;12.840;2023-07-02T14:06:36;28.90;55.20
7461;DHT22;6757;52.258;12.840;2023-07-02T14:09:05;29.00;53.30
7461;DHT22;6757;52.258;12.840;2023-07-02T14:11:33;29.10;53.20
7461;DHT22;6757;52.258;12.840;2023-07-02T14:14:01;29.00;52.60
7461;DHT22;6757;52.258;12.840;2023-07-02T14:16:30;28.90;52.00
7461;DHT22;6757;52.258;12.840;2023-07-02T14:18:57;28.50;51.70
7461;DHT22;6757;52.258;12.840;2023-07-02T14:21:24;28.00;51.90
7461;DHT22;6757;52.258;12.840;2023-07-02T14:23:51;27.70;52.90
7461;DHT22;6757;52.258;12.840;2023-07-02T14:26:18;27.60;53.80
7461;DHT22;6757;52.258;12.840;2023-07-02T14:28:45;27.70;53.60
7461;DHT22;6757;52.258;12.840;2023-07-02T14:31:12;27.70;53.00
7461;DHT22;6757;52.258;12.840;2023-07-02T14:33:40;27.50;52.60
7461;DHT22;6757;52.258;12.840;2023-07-02T14:36:07;27.30;53.20
7461;DHT22;6757;52.258;12.840;2023-07-02T14:38:35;27.30;53.90
7461;DHT22;6757;52.258;12.840;2023-07-02T14:41:02;27.50;54.30
7461;DHT22;6757;52.258;12.840;2023-07-02T14:43:30;27.80;53.60
7461;DHT22;6757;52.258;12.840;2023-07-02T14:45:58;28.10;52.90
7461;DHT22;6757;52.258;12.840;2023-07-02T14:48:27;28.30;52.30
7461;DHT22;6757;52.258;12.840;2023-07-02T14:50:56;28.50;52.60
7461;DHT22;6757;52.258;12.840;2023-07-02T14:53:25;28.80;52.80
7461;DHT22;6757;52.258;12.840;2023-07-02T14:55:54;29.10;51.40
7461;DHT22;6757;52.258;12.840;2023-07-02T14:58:22;29.30;50.80
7461;DHT22;6757;52.258;12.840;2023-07-02T15:00:51;29.30;49.70
7461;DHT22;6757;52.258;12.840;2023-07-02T15:03:21;29.30;48.90
7461;DHT22;6757;52.258;12.840;2023-07-02T15:05:49;29.00;48.30
7461;DHT22;6757;52.258;12.840;2023-07-02T15:08:18;28.90;49.00
7461;DHT22;6757;52.258;12.840;2023-07-02T15:10:47;28.80;49.80
7461;DHT22;6757;52.258;12.840;2023-07-02T15:13:15;28.80;50.00
7461;DHT22;6757;52.258;12.840;2023-07-02T15:15:44;28.90;50.00
7461;DHT22;6757;52.258;12.840;2023-07-02T15:18:12;28.90;49.70
7461;DHT22;6757;52.258;12.840;2023-07-02T15:20:39;28.80;49.80
7461;DHT22;6757;52.258;12.840;2023-07-02T15:23:07;28.60;50.40
7461;DHT22;6757;52.258;12.840;2023-07-02T15:25:35;28.50;50.30
7461;DHT22;6757;52.258;12.840;2023-07-02T15:28:02;28.40;50.10
7461;DHT22;6757;52.258;12.840;2023-07-02T15:30:30;28.20;50.40
7461;DHT22;6757;52.258;12.840;2023-07-02T15:32:57;28.10;50.90
7461;DHT22;6757;52.258;12.840;2023-07-02T15:35:24;27.70;50.80
7461;DHT22;6757;52.258;12.840;2023-07-02T15:37:51;27.20;51.20
7461;DHT22;6757;52.258;12.840;2023-07-02T15:40:18;26.80;52.10
7461;DHT22;6757;52.258;12.840;2023-07-02T15:42:46;26.70;52.70
7461;DHT22;6757;52.258;12.840;2023-07-02T15:45:14;26.60;53.10
7461;DHT22;6757;52.258;12.840;2023-07-02T15:47:41;26.60;53.50
7461;DHT22;6757;52.258;12.840;2023-07-02T15:50:08;26.70;53.80